sensor_id;sensor_type;location;lat;lon;timestamp;P1;durP1;ratioP1;P2;durP2;ratioP2
44658;SDS011;30378;50.186;8.644;2022-11-20T00:00:55;17.33;;;7.18;;
44658;SDS011;30378;50.186;8.644;2022-11-20T00:03:22;20.95;;;6.93;;
44658;SDS011;30378;50.186;8.644;2022-11-20T00:05:49;19.10;;;7.18;;
44658;SDS011;30378;50.186;8.644;2022-11-20T00:08:16;21.50;;;7.47;;
44658;SDS011;30378;50.186;8.644;2022-11-20T00:10:43;21.02;;;7.07;;
44658;SDS011;30378;50.186;8.644;2022-11-20T00:13:10;24.08;;;7.47;;
44658;SDS011;30378;50.186;8.644;2022-11-20T00:15:37;23.08;;;7.68;;
44658;SDS011;30378;50.186;8.644;2022-11-20T00:18:04;22.95;;;7.63;;
44658;SDS011;30378;50.186;8.644;2022-11-20T00:20:31;23.38;;;7.53;;
44658;SDS011;30378;50.186;8.644;2022-11-20T00:22:58;21.25;;;7.43;;
44658;SDS011;30378;50.186;8.644;2022-11-20T00:25:25;24.02;;;7.53;;
44658;SDS011;30378;50.186;8.644;2022-11-20T00:27:52;21.45;;;8.02;;
44658;SDS011;30378;50.186;8.644;2022-11-20T00:30:19;20.38;;;7.28;;
44658;SDS011;30378;50.186;8.644;2022-11-20T00:32:46;20.75;;;6.55;;
44658;SDS011;30378;50.186;8.644;2022-11-20T00:35:13;21.52;;;7.70;;
44658;SDS011;30378;50.186;8.644;2022-11-20T00:37:40;22.67;;;7.35;;
44658;SDS011;30378;50.186;8.644;2022-11-20T00:40:07;22.15;;;7.38;;
44658;SDS011;30378;50.186;8.644;2022-11-20T00:42:34;21.42;;;7.57;;
44658;SDS011;30378;50.186;8.644;2022-11-20T00:45:01;19.10;;;6.65;;
44658;SDS011;30378;50.186;8.644;2022-11-20T00:47:28;21.75;;;6.78;;
44658;SDS011;30378;50.186;8.644;2022-11-20T00:49:55;20.08;;;7.05;;
44658;SDS011;30378;50.186;8.644;2022-11-20T00:52:22;22.23;;;7.95;;
44658;SDS011;30378;50.186;8.644;2022-11-20T00:54:48;17.75;;;6.70;;
44658;SDS011;30378;50.186;8.644;2022-11-20T00:57:15;22.67;;;6.90;;
44658;SDS011;30378;50.186;8.644;2022-11-20T00:59:42;21.13;;;7.78;;
44658;SDS011;30378;50.186;8.644;2022-11-20T01:02:09;18.75;;;6.45;;
44658;SDS011;30378;50.186;8.644;2022-11-20T01:04:36;20.95;;;7.82;;
44658;SDS011;30378;50.186;8.644;2022-11-20T01:07:03;25.00;;;7.95;;
44658;SDS011;30378;50.186;8.644;2022-11-20T01:09:30;20.20;;;7.25;;
44658;SDS011;30378;50.186;8.644;2022-11-20T01:11:57;22.52;;;8.02;;
44658;SDS011;30378;50.186;8.644;2022-11-20T01:14:25;20.08;;;6.85;;
44658;SDS011;30378;50.186;8.644;2022-11-20T01:16:52;20.13;;;7.07;;
44658;SDS011;30378;50.186;8.644;2022-11-20T01:19:20;20.08;;;7.15;;
44658;SDS011;30378;50.186;8.644;2022-11-20T01:21:49;19.92;;;7.43;;
44658;SDS011;30378;50.186;8.644;2022-11-20T01:24:19;19.25;;;8.10;;
44658;SDS011;30378;50.186;8.644;2022-11-20T01:26:48;21.55;;;7.38;;
44658;SDS011;30378;50.186;8.644;2022-11-20T01:29:18;21.77;;;7.55;;
44658;SDS011;30378;50.186;8.644;2022-11-20T01:31:49;19.23;;;6.65;;
44658;SDS011;30378;50.186;8.644;2022-11-20T01:34:18;23.13;;;8.02;;
44658;SDS011;30378;50.186;8.644;2022-11-20T01:36:46;26.33;;;8.13;;
44658;SDS011;30378;50.186;8.644;2022-11-20T01:39:16;20.42;;;7.28;;
44658;SDS011;30378;50.186;8.644;2022-11-20T01:41:45;20.98;;;6.53;;
44658;SDS011;30378;50.186;8.644;2022-11-20T01:44:51;21.00;;;7.65;;
44658;SDS011;30378;50.186;8.644;2022-11-20T01:52:45;19.65;;;7.38;;
44658;SDS011;30378;50.186;8.644;2022-11-20T01:55:19;23.48;;;7.50;;
44658;SDS011;30378;50.186;8.644;2022-11-20T01:57:50;26.50;;;8.32;;
44658;SDS011;30378;50.186;8.644;2022-11-20T02:00:19;24.10;;;7.18;;
44658;SDS011;30378;50.186;8.644;2022-11-20T02:02:59;22.45;;;7.22;;
44658;SDS011;30378;50.186;8.644;2022-11-20T02:08:17;27.50;;;8.45;;
44658;SDS011;30378;50.186;8.644;2022-11-20T02:10:45;24.27;;;7.90;;
44658;SDS011;30378;50.186;8.644;2022-11-20T02:13:12;25.20;;;8.55;;
44658;SDS011;30378;50.186;8.644;2022-11-20T02:15:58;27.70;;;8.82;;
44658;SDS011;30378;50.186;8.644;2022-11-20T02:18:25;24.30;;;8.07;;
44658;SDS011;30378;50.186;8.644;2022-11-20T02:21:17;22.38;;;7.80;;
44658;SDS011;30378;50.186;8.644;2022-11-20T02:26:57;25.58;;;8.40;;
44658;SDS011;30378;50.186;8.644;2022-11-20T02:29:32;23.67;;;8.43;;
44658;SDS011;30378;50.186;8.644;2022-11-20T02:32:03;24.35;;;9.05;;
44658;SDS011;30378;50.186;8.644;2022-11-20T02:34:30;25.55;;;8.05;;
44658;SDS011;30378;50.186;8.644;2022-11-20T02:39:25;24.58;;;7.90;;
44658;SDS011;30378;50.186;8.644;2022-11-20T02:41:54;24.88;;;7.95;;
44658;SDS011;30378;50.186;8.644;2022-11-20T02:44:22;30.02;;;8.75;;
44658;SDS011;30378;50.186;8.644;2022-11-20T02:46:49;23.75;;;7.68;;
44658;SDS011;30378;50.186;8.644;2022-11-20T02:49:16;28.48;;;9.02;;
44658;SDS011;30378;50.186;8.644;2022-11-20T02:51:43;26.02;;;9.77;;
44658;SDS011;30378;50.186;8.644;2022-11-20T02:54:10;23.42;;;9.73;;
44658;SDS011;30378;50.186;8.644;2022-11-20T02:56:38;24.02;;;8.77;;
44658;SDS011;30378;50.186;8.644;2022-11-20T02:59:05;29.92;;;10.57;;
44658;SDS011;30378;50.186;8.644;2022-11-20T03:04:00;26.10;;;8.52;;
44658;SDS011;30378;50.186;8.644;2022-11-20T03:06:27;23.17;;;8.93;;
44658;SDS011;30378;50.186;8.644;2022-11-20T03:08:54;24.85;;;9.52;;
44658;SDS011;30378;50.186;8.644;2022-11-20T03:11:21;26.52;;;9.23;;
44658;SDS011;30378;50.186;8.644;2022-11-20T03:13:48;22.42;;;9.07;;
44658;SDS011;30378;50.186;8.644;2022-11-20T03:16:16;25.35;;;9.32;;
44658;SDS011;30378;50.186;8.644;2022-11-20T03:18:46;27.02;;;8.90;;
44658;SDS011;30378;50.186;8.644;2022-11-20T03:21:13;26.10;;;8.45;;
44658;SDS011;30378;50.186;8.644;2022-11-20T03:23:41;27.98;;;9.48;;
44658;SDS011;30378;50.186;8.644;2022-11-20T03:26:09;27.08;;;8.60;;
44658;SDS011;30378;50.186;8.644;2022-11-20T03:28:39;24.75;;;8.52;;
44658;SDS011;30378;50.186;8.644;2022-11-20T03:31:07;24.45;;;9.05;;
44658;SDS011;30378;50.186;8.644;2022-11-20T03:33:37;26.77;;;7.88;;
44658;SDS011;30378;50.186;8.644;2022-11-20T03:36:06;21.52;;;8.25;;
44658;SDS011;30378;50.186;8.644;2022-11-20T03:38:35;24.25;;;8.52;;
44658;SDS011;30378;50.186;8.644;2022-11-20T03:41:03;23.60;;;8.02;;
44658;SDS011;30378;50.186;8.644;2022-11-20T03:43:32;27.23;;;8.32;;
44658;SDS011;30378;50.186;8.644;2022-11-20T03:46:00;22.42;;;7.38;;
44658;SDS011;30378;50.186;8.644;2022-11-20T03:48:27;27.08;;;8.73;;
44658;SDS011;30378;50.186;8.644;2022-11-20T03:51:11;25.33;;;8.60;;
44658;SDS011;30378;50.186;8.644;2022-11-20T03:53:39;24.40;;;9.25;;
44658;SDS011;30378;50.186;8.644;2022-11-20T03:56:07;24.15;;;8.30;;
44658;SDS011;30378;50.186;8.644;2022-11-20T03:58:35;23.38;;;7.95;;
44658;SDS011;30378;50.186;8.644;2022-11-20T04:01:04;22.88;;;8.10;;
44658;SDS011;30378;50.186;8.644;2022-11-20T04:03:35;23.73;;;7.50;;
44658;SDS011;30378;50.186;8.644;2022-11-20T04:06:08;27.20;;;8.38;;
44658;SDS011;30378;50.186;8.644;2022-11-20T04:08:40;23.17;;;7.25;;
44658;SDS011;30378;50.186;8.644;2022-11-20T04:11:17;24.70;;;8.23;;
44658;SDS011;30378;50.186;8.644;2022-11-20T04:13:46;26.42;;;8.68;;
44658;SDS011;30378;50.186;8.644;2022-11-20T04:16:16;23.92;;;8.90;;
44658;SDS011;30378;50.186;8.644;2022-11-20T04:18:43;25.45;;;8.57;;
44658;SDS011;30378;50.186;8.644;2022-11-20T04:21:10;25.98;;;9.43;;
44658;SDS011;30378;50.186;8.644;2022-11-20T04:23:38;23.52;;;8.45;;
44658;SDS011;30378;50.186;8.644;2022-11-20T04:26:09;26.00;;;8.65;;
44658;SDS011;30378;50.186;8.644;2022-11-20T04:28:38;23.02;;;8.05;;
44658;SDS011;30378;50.186;8.644;2022-11-20T04:31:06;22.20;;;7.75;;
44658;SDS011;30378;50.186;8.644;2022-11-20T04:33:33;24.08;;;8.52;;
44658;SDS011;30378;50.186;8.644;2022-11-20T04:36:02;24.20;;;8.40;;
44658;SDS011;30378;50.186;8.644;2022-11-20T04:38:33;21.77;;;7.95;;
44658;SDS011;30378;50.186;8.644;2022-11-20T04:43:28;21.30;;;7.05;;
44658;SDS011;30378;50.186;8.644;2022-11-20T04:45:56;27.95;;;8.07;;
44658;SDS011;30378;50.186;8.644;2022-11-20T04:48:24;25.83;;;8.20;;
44658;SDS011;30378;50.186;8.644;2022-11-20T04:50:52;25.70;;;8.50;;
44658;SDS011;30378;50.186;8.644;2022-11-20T04:53:20;23.33;;;8.02;;
44658;SDS011;30378;50.186;8.644;2022-11-20T04:55:48;20.13;;;7.50;;
44658;SDS011;30378;50.186;8.644;2022-11-20T04:58:15;22.95;;;7.90;;
44658;SDS011;30378;50.186;8.644;2022-11-20T05:00:42;28.30;;;8.68;;
44658;SDS011;30378;50.186;8.644;2022-11-20T05:03:09;24.33;;;7.93;;
44658;SDS011;30378;50.186;8.644;2022-11-20T05:05:36;22.05;;;7.75;;
44658;SDS011;30378;50.186;8.644;2022-11-20T05:08:03;22.98;;;7.57;;
44658;SDS011;30378;50.186;8.644;2022-11-20T05:10:30;23.65;;;9.00;;
44658;SDS011;30378;50.186;8.644;2022-11-20T05:12:57;24.50;;;8.30;;
44658;SDS011;30378;50.186;8.644;2022-11-20T05:15:24;26.17;;;8.38;;
44658;SDS011;30378;50.186;8.644;2022-11-20T05:17:51;25.25;;;8.55;;
44658;SDS011;30378;50.186;8.644;2022-11-20T05:20:19;21.73;;;7.60;;
44658;SDS011;30378;50.186;8.644;2022-11-20T05:22:46;21.50;;;7.97;;
44658;SDS011;30378;50.186;8.644;2022-11-20T05:25:13;25.30;;;8.38;;
44658;SDS011;30378;50.186;8.644;2022-11-20T05:27:40;21.25;;;7.55;;
44658;SDS011;30378;50.186;8.644;2022-11-20T05:30:07;23.25;;;7.90;;
44658;SDS011;30378;50.186;8.644;2022-11-20T05:32:34;26.98;;;9.02;;
44658;SDS011;30378;50.186;8.644;2022-11-20T05:35:01;24.63;;;9.55;;
44658;SDS011;30378;50.186;8.644;2022-11-20T05:37:28;24.23;;;8.13;;
44658;SDS011;30378;50.186;8.644;2022-11-20T05:39:55;26.50;;;7.72;;
44658;SDS011;30378;50.186;8.644;2022-11-20T05:42:22;23.98;;;8.82;;
44658;SDS011;30378;50.186;8.644;2022-11-20T05:44:58;24.27;;;8.35;;
44658;SDS011;30378;50.186;8.644;2022-11-20T05:47:31;20.08;;;7.10;;
44658;SDS011;30378;50.186;8.644;2022-11-20T05:52:30;24.80;;;7.43;;
44658;SDS011;30378;50.186;8.644;2022-11-20T05:54:57;23.95;;;8.23;;
44658;SDS011;30378;50.186;8.644;2022-11-20T05:57:24;28.80;;;7.80;;
44658;SDS011;30378;50.186;8.644;2022-11-20T05:59:51;25.60;;;7.88;;
44658;SDS011;30378;50.186;8.644;2022-11-20T06:02:18;25.83;;;8.70;;
44658;SDS011;30378;50.186;8.644;2022-11-20T06:04:45;25.27;;;8.70;;
44658;SDS011;30378;50.186;8.644;2022-11-20T06:07:12;26.88;;;8.18;;
44658;SDS011;30378;50.186;8.644;2022-11-20T06:09:39;24.65;;;9.23;;
44658;SDS011;30378;50.186;8.644;2022-11-20T06:12:06;25.23;;;8.52;;
44658;SDS011;30378;50.186;8.644;2022-11-20T06:14:33;23.80;;;8.57;;
44658;SDS011;30378;50.186;8.644;2022-11-20T06:17:00;25.50;;;8.65;;
44658;SDS011;30378;50.186;8.644;2022-11-20T06:19:27;26.05;;;8.77;;
44658;SDS011;30378;50.186;8.644;2022-11-20T06:21:54;27.75;;;8.60;;
44658;SDS011;30378;50.186;8.644;2022-11-20T06:24:21;31.80;;;10.13;;
44658;SDS011;30378;50.186;8.644;2022-11-20T06:26:48;24.98;;;8.82;;
44658;SDS011;30378;50.186;8.644;2022-11-20T06:29:15;24.52;;;8.32;;
44658;SDS011;30378;50.186;8.644;2022-11-20T06:31:42;26.73;;;8.75;;
44658;SDS011;30378;50.186;8.644;2022-11-20T06:34:09;27.08;;;8.57;;
44658;SDS011;30378;50.186;8.644;2022-11-20T06:36:36;26.35;;;8.93;;
44658;SDS011;30378;50.186;8.644;2022-11-20T06:39:03;31.80;;;9.70;;
44658;SDS011;30378;50.186;8.644;2022-11-20T06:41:30;33.10;;;10.30;;
44658;SDS011;30378;50.186;8.644;2022-11-20T06:43:57;30.63;;;9.25;;
44658;SDS011;30378;50.186;8.644;2022-11-20T06:46:24;28.48;;;10.10;;
44658;SDS011;30378;50.186;8.644;2022-11-20T06:48:51;30.85;;;10.18;;
44658;SDS011;30378;50.186;8.644;2022-11-20T06:51:18;27.95;;;9.27;;
44658;SDS011;30378;50.186;8.644;2022-11-20T06:53:45;32.40;;;10.45;;
44658;SDS011;30378;50.186;8.644;2022-11-20T06:56:12;35.08;;;10.35;;
44658;SDS011;30378;50.186;8.644;2022-11-20T06:58:39;27.52;;;9.75;;
44658;SDS011;30378;50.186;8.644;2022-11-20T07:01:07;27.65;;;9.32;;
44658;SDS011;30378;50.186;8.644;2022-11-20T07:03:36;28.63;;;9.63;;
44658;SDS011;30378;50.186;8.644;2022-11-20T07:06:04;26.52;;;9.48;;
44658;SDS011;30378;50.186;8.644;2022-11-20T07:11:00;27.98;;;8.13;;
44658;SDS011;30378;50.186;8.644;2022-11-20T07:13:28;27.45;;;8.60;;
44658;SDS011;30378;50.186;8.644;2022-11-20T07:15:59;28.42;;;9.65;;
44658;SDS011;30378;50.186;8.644;2022-11-20T07:18:27;26.08;;;8.90;;
44658;SDS011;30378;50.186;8.644;2022-11-20T07:20:54;35.03;;;10.05;;
44658;SDS011;30378;50.186;8.644;2022-11-20T07:23:21;31.60;;;10.95;;
44658;SDS011;30378;50.186;8.644;2022-11-20T07:25:48;33.38;;;9.63;;
44658;SDS011;30378;50.186;8.644;2022-11-20T07:28:15;28.75;;;9.60;;
44658;SDS011;30378;50.186;8.644;2022-11-20T07:30:42;28.80;;;10.45;;
44658;SDS011;30378;50.186;8.644;2022-11-20T07:33:08;35.83;;;10.52;;
44658;SDS011;30378;50.186;8.644;2022-11-20T07:35:35;30.20;;;9.27;;
44658;SDS011;30378;50.186;8.644;2022-11-20T07:38:02;32.88;;;10.25;;
44658;SDS011;30378;50.186;8.644;2022-11-20T07:40:29;40.17;;;10.55;;
44658;SDS011;30378;50.186;8.644;2022-11-20T07:42:56;40.17;;;11.05;;
44658;SDS011;30378;50.186;8.644;2022-11-20T07:45:24;33.13;;;10.50;;
44658;SDS011;30378;50.186;8.644;2022-11-20T07:47:51;41.20;;;12.10;;
44658;SDS011;30378;50.186;8.644;2022-11-20T07:50:18;38.47;;;12.35;;
44658;SDS011;30378;50.186;8.644;2022-11-20T07:52:46;44.78;;;11.93;;
44658;SDS011;30378;50.186;8.644;2022-11-20T07:55:13;36.60;;;10.95;;
44658;SDS011;30378;50.186;8.644;2022-11-20T08:02:39;45.33;;;11.00;;
44658;SDS011;30378;50.186;8.644;2022-11-20T08:05:07;42.00;;;11.90;;
44658;SDS011;30378;50.186;8.644;2022-11-20T08:07:36;43.13;;;12.48;;
44658;SDS011;30378;50.186;8.644;2022-11-20T08:10:04;49.13;;;13.32;;
44658;SDS011;30378;50.186;8.644;2022-11-20T08:12:32;49.20;;;13.80;;
44658;SDS011;30378;50.186;8.644;2022-11-20T08:15:17;40.00;;;11.90;;
44658;SDS011;30378;50.186;8.644;2022-11-20T08:17:44;42.75;;;13.05;;
44658;SDS011;30378;50.186;8.644;2022-11-20T08:20:18;41.70;;;12.55;;
44658;SDS011;30378;50.186;8.644;2022-11-20T08:22:45;41.47;;;13.25;;
44658;SDS011;30378;50.186;8.644;2022-11-20T08:25:12;43.35;;;12.90;;
44658;SDS011;30378;50.186;8.644;2022-11-20T08:27:39;47.67;;;12.80;;
44658;SDS011;30378;50.186;8.644;2022-11-20T08:30:06;43.50;;;13.10;;
44658;SDS011;30378;50.186;8.644;2022-11-20T08:32:33;41.00;;;13.10;;
44658;SDS011;30378;50.186;8.644;2022-11-20T08:35:02;48.25;;;12.73;;
44658;SDS011;30378;50.186;8.644;2022-11-20T08:37:30;44.35;;;12.90;;
44658;SDS011;30378;50.186;8.644;2022-11-20T08:39:57;44.15;;;13.13;;
44658;SDS011;30378;50.186;8.644;2022-11-20T08:42:24;52.83;;;13.98;;
44658;SDS011;30378;50.186;8.644;2022-11-20T08:44:50;47.08;;;14.15;;
44658;SDS011;30378;50.186;8.644;2022-11-20T08:47:17;44.80;;;12.30;;
44658;SDS011;30378;50.186;8.644;2022-11-20T08:49:44;45.67;;;13.93;;
44658;SDS011;30378;50.186;8.644;2022-11-20T08:52:11;37.85;;;11.80;;
44658;SDS011;30378;50.186;8.644;2022-11-20T08:54:38;45.35;;;12.68;;
44658;SDS011;30378;50.186;8.644;2022-11-20T08:57:05;43.58;;;13.32;;
44658;SDS011;30378;50.186;8.644;2022-11-20T08:59:32;45.40;;;13.80;;
44658;SDS011;30378;50.186;8.644;2022-11-20T09:02:19;47.50;;;14.10;;
44658;SDS011;30378;50.186;8.644;2022-11-20T09:04:45;43.17;;;13.07;;
44658;SDS011;30378;50.186;8.644;2022-11-20T09:07:12;39.05;;;11.43;;
44658;SDS011;30378;50.186;8.644;2022-11-20T09:09:39;39.92;;;12.02;;
44658;SDS011;30378;50.186;8.644;2022-11-20T09:12:06;36.78;;;12.65;;
44658;SDS011;30378;50.186;8.644;2022-11-20T09:14:33;30.83;;;9.55;;
44658;SDS011;30378;50.186;8.644;2022-11-20T09:17:00;30.25;;;9.35;;
44658;SDS011;30378;50.186;8.644;2022-11-20T09:19:27;36.58;;;10.27;;
44658;SDS011;30378;50.186;8.644;2022-11-20T09:22:00;32.38;;;11.05;;
44658;SDS011;30378;50.186;8.644;2022-11-20T09:24:27;30.42;;;10.05;;
44658;SDS011;30378;50.186;8.644;2022-11-20T09:26:54;33.45;;;11.27;;
44658;SDS011;30378;50.186;8.644;2022-11-20T09:29:21;32.60;;;9.43;;
44658;SDS011;30378;50.186;8.644;2022-11-20T09:31:48;32.95;;;9.95;;
44658;SDS011;30378;50.186;8.644;2022-11-20T09:34:15;37.75;;;11.02;;
44658;SDS011;30378;50.186;8.644;2022-11-20T09:36:42;36.65;;;11.32;;
44658;SDS011;30378;50.186;8.644;2022-11-20T09:39:09;36.17;;;9.95;;
44658;SDS011;30378;50.186;8.644;2022-11-20T09:41:42;37.58;;;11.50;;
44658;SDS011;30378;50.186;8.644;2022-11-20T09:44:39;39.80;;;11.45;;
44658;SDS011;30378;50.186;8.644;2022-11-20T09:53:13;34.58;;;10.40;;
44658;SDS011;30378;50.186;8.644;2022-11-20T09:55:51;32.65;;;10.10;;
44658;SDS011;30378;50.186;8.644;2022-11-20T09:58:24;31.52;;;10.07;;
44658;SDS011;30378;50.186;8.644;2022-11-20T10:06:12;31.42;;;11.60;;
44658;SDS011;30378;50.186;8.644;2022-11-20T10:08:48;27.85;;;9.30;;
44658;SDS011;30378;50.186;8.644;2022-11-20T10:25:18;28.35;;;9.55;;
44658;SDS011;30378;50.186;8.644;2022-11-20T10:30:23;28.17;;;8.88;;
44658;SDS011;30378;50.186;8.644;2022-11-20T10:32:52;29.88;;;9.30;;
44658;SDS011;30378;50.186;8.644;2022-11-20T10:35:44;29.30;;;9.23;;
44658;SDS011;30378;50.186;8.644;2022-11-20T10:38:23;27.50;;;9.02;;
44658;SDS011;30378;50.186;8.644;2022-11-20T10:41:00;25.75;;;8.98;;
44658;SDS011;30378;50.186;8.644;2022-11-20T10:43:47;27.77;;;8.98;;
44658;SDS011;30378;50.186;8.644;2022-11-20T10:46:19;28.67;;;9.05;;
44658;SDS011;30378;50.186;8.644;2022-11-20T10:48:48;24.58;;;7.63;;
44658;SDS011;30378;50.186;8.644;2022-11-20T10:54:03;23.55;;;7.65;;
44658;SDS011;30378;50.186;8.644;2022-11-20T10:56:36;34.55;;;8.57;;
44658;SDS011;30378;50.186;8.644;2022-11-20T11:02:29;23.45;;;8.10;;
44658;SDS011;30378;50.186;8.644;2022-11-20T11:05:04;22.85;;;6.93;;
44658;SDS011;30378;50.186;8.644;2022-11-20T11:07:42;22.95;;;7.53;;
44658;SDS011;30378;50.186;8.644;2022-11-20T11:10:18;26.13;;;8.15;;
44658;SDS011;30378;50.186;8.644;2022-11-20T11:12:50;26.10;;;9.05;;
44658;SDS011;30378;50.186;8.644;2022-11-20T11:17:55;32.13;;;11.50;;
44658;SDS011;30378;50.186;8.644;2022-11-20T11:20:24;29.20;;;9.70;;
44658;SDS011;30378;50.186;8.644;2022-11-20T11:22:56;35.95;;;11.38;;
44658;SDS011;30378;50.186;8.644;2022-11-20T11:25:28;33.90;;;11.25;;
44658;SDS011;30378;50.186;8.644;2022-11-20T11:28:01;34.88;;;10.20;;
44658;SDS011;30378;50.186;8.644;2022-11-20T11:30:40;34.53;;;10.45;;
44658;SDS011;30378;50.186;8.644;2022-11-20T11:33:10;34.53;;;11.10;;
44658;SDS011;30378;50.186;8.644;2022-11-20T11:35:46;35.92;;;11.27;;
44658;SDS011;30378;50.186;8.644;2022-11-20T11:38:17;35.97;;;10.90;;
44658;SDS011;30378;50.186;8.644;2022-11-20T11:40:49;31.92;;;9.25;;
44658;SDS011;30378;50.186;8.644;2022-11-20T11:43:19;32.45;;;10.55;;
44658;SDS011;30378;50.186;8.644;2022-11-20T11:51:25;39.83;;;11.70;;
44658;SDS011;30378;50.186;8.644;2022-11-20T11:53:56;40.10;;;12.57;;
44658;SDS011;30378;50.186;8.644;2022-11-20T11:56:26;34.83;;;11.25;;
44658;SDS011;30378;50.186;8.644;2022-11-20T11:58:54;31.90;;;10.82;;
44658;SDS011;30378;50.186;8.644;2022-11-20T12:01:47;33.42;;;12.15;;
44658;SDS011;30378;50.186;8.644;2022-11-20T12:04:36;39.30;;;12.25;;
44658;SDS011;30378;50.186;8.644;2022-11-20T12:10:19;42.08;;;12.23;;
44658;SDS011;30378;50.186;8.644;2022-11-20T12:12:51;37.13;;;11.18;;
44658;SDS011;30378;50.186;8.644;2022-11-20T12:15:32;29.80;;;10.90;;
44658;SDS011;30378;50.186;8.644;2022-11-20T12:18:00;33.78;;;10.90;;
44658;SDS011;30378;50.186;8.644;2022-11-20T12:20:32;31.55;;;10.20;;
44658;SDS011;30378;50.186;8.644;2022-11-20T12:23:10;31.10;;;10.35;;
44658;SDS011;30378;50.186;8.644;2022-11-20T12:25:48;32.10;;;10.63;;
44658;SDS011;30378;50.186;8.644;2022-11-20T12:28:29;39.88;;;11.40;;
44658;SDS011;30378;50.186;8.644;2022-11-20T12:34:25;35.88;;;11.43;;
44658;SDS011;30378;50.186;8.644;2022-11-20T12:39:48;32.38;;;11.88;;
44658;SDS011;30378;50.186;8.644;2022-11-20T12:42:38;32.80;;;11.23;;
44658;SDS011;30378;50.186;8.644;2022-11-20T12:53:54;31.75;;;10.48;;
44658;SDS011;30378;50.186;8.644;2022-11-20T12:59:39;40.67;;;12.40;;
44658;SDS011;30378;50.186;8.644;2022-11-20T13:08:11;43.85;;;12.85;;
44658;SDS011;30378;50.186;8.644;2022-11-20T13:13:42;42.70;;;13.43;;
44658;SDS011;30378;50.186;8.644;2022-11-20T13:16:17;40.08;;;12.48;;
44658;SDS011;30378;50.186;8.644;2022-11-20T13:18:51;36.95;;;11.73;;
44658;SDS011;30378;50.186;8.644;2022-11-20T13:21:20;35.67;;;12.73;;
44658;SDS011;30378;50.186;8.644;2022-11-20T13:24:03;40.75;;;11.68;;
44658;SDS011;30378;50.186;8.644;2022-11-20T13:26:46;41.17;;;13.13;;
44658;SDS011;30378;50.186;8.644;2022-11-20T13:29:17;38.97;;;12.52;;
44658;SDS011;30378;50.186;8.644;2022-11-20T13:31:45;37.80;;;12.15;;
44658;SDS011;30378;50.186;8.644;2022-11-20T13:34:23;37.33;;;11.07;;
44658;SDS011;30378;50.186;8.644;2022-11-20T13:36:53;44.35;;;12.52;;
44658;SDS011;30378;50.186;8.644;2022-11-20T13:39:28;43.78;;;13.32;;
44658;SDS011;30378;50.186;8.644;2022-11-20T13:41:59;39.22;;;12.68;;
44658;SDS011;30378;50.186;8.644;2022-11-20T13:44:34;41.50;;;13.55;;
44658;SDS011;30378;50.186;8.644;2022-11-20T13:47:21;37.58;;;11.73;;
44658;SDS011;30378;50.186;8.644;2022-11-20T13:49:50;45.33;;;13.50;;
44658;SDS011;30378;50.186;8.644;2022-11-20T13:54:51;39.75;;;11.82;;
44658;SDS011;30378;50.186;8.644;2022-11-20T14:00:11;40.95;;;13.05;;
44658;SDS011;30378;50.186;8.644;2022-11-20T14:02:41;36.45;;;11.20;;
44658;SDS011;30378;50.186;8.644;2022-11-20T14:05:22;42.30;;;12.77;;
44658;SDS011;30378;50.186;8.644;2022-11-20T14:07:50;39.90;;;11.65;;
44658;SDS011;30378;50.186;8.644;2022-11-20T14:10:21;42.20;;;12.43;;
44658;SDS011;30378;50.186;8.644;2022-11-20T14:12:56;44.45;;;13.70;;
44658;SDS011;30378;50.186;8.644;2022-11-20T14:15:28;40.65;;;13.07;;
44658;SDS011;30378;50.186;8.644;2022-11-20T14:17:57;42.50;;;12.82;;
44658;SDS011;30378;50.186;8.644;2022-11-20T14:22:53;38.80;;;12.93;;
44658;SDS011;30378;50.186;8.644;2022-11-20T14:25:23;36.55;;;12.15;;
44658;SDS011;30378;50.186;8.644;2022-11-20T14:27:54;33.40;;;11.68;;
44658;SDS011;30378;50.186;8.644;2022-11-20T14:33:03;37.67;;;12.02;;
44658;SDS011;30378;50.186;8.644;2022-11-20T14:35:33;36.45;;;12.38;;
44658;SDS011;30378;50.186;8.644;2022-11-20T14:38:03;44.92;;;13.52;;
44658;SDS011;30378;50.186;8.644;2022-11-20T14:40:34;40.70;;;12.02;;
44658;SDS011;30378;50.186;8.644;2022-11-20T14:43:15;42.10;;;13.23;;
44658;SDS011;30378;50.186;8.644;2022-11-20T14:46:07;43.30;;;12.32;;
44658;SDS011;30378;50.186;8.644;2022-11-20T14:48:49;40.53;;;12.52;;
44658;SDS011;30378;50.186;8.644;2022-11-20T14:51:25;45.03;;;13.88;;
44658;SDS011;30378;50.186;8.644;2022-11-20T14:54:09;40.22;;;12.68;;
44658;SDS011;30378;50.186;8.644;2022-11-20T14:56:55;46.80;;;14.23;;
44658;SDS011;30378;50.186;8.644;2022-11-20T14:59:24;39.13;;;12.93;;
44658;SDS011;30378;50.186;8.644;2022-11-20T15:01:55;47.83;;;14.20;;
44658;SDS011;30378;50.186;8.644;2022-11-20T15:06:54;44.22;;;13.65;;
44658;SDS011;30378;50.186;8.644;2022-11-20T15:09:23;43.20;;;12.70;;
44658;SDS011;30378;50.186;8.644;2022-11-20T15:14:21;41.58;;;12.32;;
44658;SDS011;30378;50.186;8.644;2022-11-20T15:16:50;46.92;;;14.90;;
44658;SDS011;30378;50.186;8.644;2022-11-20T15:19:21;42.92;;;14.18;;
44658;SDS011;30378;50.186;8.644;2022-11-20T15:21:50;47.60;;;13.95;;
44658;SDS011;30378;50.186;8.644;2022-11-20T15:24:18;39.65;;;13.20;;
44658;SDS011;30378;50.186;8.644;2022-11-20T15:26:45;45.50;;;14.05;;
44658;SDS011;30378;50.186;8.644;2022-11-20T15:29:13;53.20;;;13.98;;
44658;SDS011;30378;50.186;8.644;2022-11-20T15:31:41;47.97;;;14.00;;
44658;SDS011;30378;50.186;8.644;2022-11-20T15:34:12;45.50;;;13.05;;
44658;SDS011;30378;50.186;8.644;2022-11-20T15:36:40;45.33;;;12.68;;
44658;SDS011;30378;50.186;8.644;2022-11-20T15:39:09;43.08;;;11.27;;
44658;SDS011;30378;50.186;8.644;2022-11-20T15:41:36;48.38;;;14.00;;
44658;SDS011;30378;50.186;8.644;2022-11-20T15:44:04;47.03;;;13.48;;
44658;SDS011;30378;50.186;8.644;2022-11-20T15:46:32;44.08;;;14.45;;
44658;SDS011;30378;50.186;8.644;2022-11-20T15:49:05;43.75;;;12.95;;
44658;SDS011;30378;50.186;8.644;2022-11-20T15:51:36;44.78;;;12.65;;
44658;SDS011;30378;50.186;8.644;2022-11-20T15:54:10;45.75;;;12.85;;
44658;SDS011;30378;50.186;8.644;2022-11-20T15:56:39;42.17;;;13.00;;
44658;SDS011;30378;50.186;8.644;2022-11-20T15:59:06;39.58;;;13.25;;
44658;SDS011;30378;50.186;8.644;2022-11-20T16:01:33;33.97;;;11.55;;
44658;SDS011;30378;50.186;8.644;2022-11-20T16:04:00;40.63;;;12.10;;
44658;SDS011;30378;50.186;8.644;2022-11-20T16:06:27;32.83;;;11.88;;
44658;SDS011;30378;50.186;8.644;2022-11-20T16:08:54;36.17;;;11.25;;
44658;SDS011;30378;50.186;8.644;2022-11-20T16:11:21;32.35;;;10.82;;
44658;SDS011;30378;50.186;8.644;2022-11-20T16:13:48;31.55;;;10.30;;
44658;SDS011;30378;50.186;8.644;2022-11-20T16:16:36;32.42;;;10.90;;
44658;SDS011;30378;50.186;8.644;2022-11-20T16:19:05;38.28;;;10.85;;
44658;SDS011;30378;50.186;8.644;2022-11-20T16:21:32;33.03;;;12.05;;
44658;SDS011;30378;50.186;8.644;2022-11-20T16:24:03;35.20;;;10.95;;
44658;SDS011;30378;50.186;8.644;2022-11-20T16:26:31;32.00;;;10.45;;
44658;SDS011;30378;50.186;8.644;2022-11-20T16:28:59;27.05;;;10.48;;
44658;SDS011;30378;50.186;8.644;2022-11-20T16:31:27;34.28;;;10.60;;
44658;SDS011;30378;50.186;8.644;2022-11-20T16:33:54;30.35;;;10.38;;
44658;SDS011;30378;50.186;8.644;2022-11-20T16:36:23;30.23;;;11.10;;
44658;SDS011;30378;50.186;8.644;2022-11-20T16:38:52;34.22;;;10.90;;
44658;SDS011;30378;50.186;8.644;2022-11-20T16:41:20;33.40;;;11.60;;